sensor_id;sensor_type;location;lat;lon;timestamp;temperature;humidity
13686;DHT22;6915;48.296;8.874;2023-04-01T00:00:04;7.10;99.90
13686;DHT22;6915;48.296;8.874;2023-04-01T00:02:33;7.20;99.90
13686;DHT22;6915;48.296;8.874;2023-04-01T00:05:04;7.20;99.90
13686;DHT22;6915;48.296;8.874;2023-04-01T00:07:33;7.20;99.90
13686;DHT22;6915;48.296;8.874;2023-04-01T00:10:01;7.20;99.90
13686;DHT22;6915;48.296;8.874;2023-04-01T00:12:30;7.20;99.90
13686;DHT22;6915;48.296;8.874;2023-04-01T00:14:59;7.30;99.90
13686;DHT22;6915;48.296;8.874;2023-04-01T00:17:28;7.30;99.90
13686;DHT22;6915;48.296;8.874;2023-04-01T00:19:58;7.30;99.90
13686;DHT22;6915;48.296;8.874;2023-04-01T00:22:29;7.30;99.90
13686;DHT22;6915;48.296;8.874;2023-04-01T00:24:57;7.30;99.90
13686;DHT22;6915;48.296;8.874;2023-04-01T00:27:26;7.20;99.90
13686;DHT22;6915;48.296;8.874;2023-04-01T00:29:54;7.20;99.90
13686;DHT22;6915;48.296;8.874;2023-04-01T00:32:23;7.20;99.90
13686;DHT22;6915;48.296;8.874;2023-04-01T00:34:52;7.00;99.90
13686;DHT22;6915;48.296;8.874;2023-04-01T00:37:21;7.10;99.90
13686;DHT22;6915;48.296;8.874;2023-04-01T00:39:52;7.10;99.90
13686;DHT22;6915;48.296;8.874;2023-04-01T00:42:21;7.20;99.90
13686;DHT22;6915;48.296;8.874;2023-04-01T00:44:52;7.00;99.90
13686;DHT22;6915;48.296;8.874;2023-04-01T00:47:22;7.10;99.90
13686;DHT22;6915;48.296;8.874;2023-04-01T00:49:53;7.10;99.90
13686;DHT22;6915;48.296;8.874;2023-04-01T00:52:24;7.00;99.90
13686;DHT22;6915;48.296;8.874;2023-04-01T00:54:58;7.00;99.90
13686;DHT22;6915;48.296;8.874;2023-04-01T00:57:30;7.00;99.90
13686;DHT22;6915;48.296;8.874;2023-04-01T01:00:01;7.00;99.90
13686;DHT22;6915;48.296;8.874;2023-04-01T01:02:29;7.00;99.90
13686;DHT22;6915;48.296;8.874;2023-04-01T01:04:59;6.90;99.90
13686;DHT22;6915;48.296;8.874;2023-04-01T01:07:31;6.90;99.90
13686;DHT22;6915;48.296;8.874;2023-04-01T01:10:10;6.90;99.90
13686;DHT22;6915;48.296;8.874;2023-04-01T01:12:44;6.90;99.90
13686;DHT22;6915;48.296;8.874;2023-04-01T01:15:20;7.00;99.90
13686;DHT22;6915;48.296;8.874;2023-04-01T01:17:58;6.80;99.90
13686;DHT22;6915;48.296;8.874;2023-04-01T01:27:03;6.60;99.90
13686;DHT22;6915;48.296;8.874;2023-04-01T01:32:49;6.60;99.90
13686;DHT22;6915;48.296;8.874;2023-04-01T01:35:25;6.50;99.90
13686;DHT22;6915;48.296;8.874;2023-04-01T01:37:58;6.60;99.90
13686;DHT22;6915;48.296;8.874;2023-04-01T01:40:29;6.60;99.90
13686;DHT22;6915;48.296;8.874;2023-04-01T01:43:02;6.60;99.90
13686;DHT22;6915;48.296;8.874;2023-04-01T01:45:32;6.60;99.90
13686;DHT22;6915;48.296;8.874;2023-04-01T01:48:04;6.50;99.90
13686;DHT22;6915;48.296;8.874;2023-04-01T01:50:34;6.60;99.90
13686;DHT22;6915;48.296;8.874;2023-04-01T01:53:07;6.50;99.90
13686;DHT22;6915;48.296;8.874;2023-04-01T01:55:39;6.50;99.90
13686;DHT22;6915;48.296;8.874;2023-04-01T01:58:09;6.50;99.90
13686;DHT22;6915;48.296;8.874;2023-04-01T02:00:41;6.40;99.90
13686;DHT22;6915;48.296;8.874;2023-04-01T02:03:12;6.30;99.90
13686;DHT22;6915;48.296;8.874;2023-04-01T02:05:43;6.40;99.90
13686;DHT22;6915;48.296;8.874;2023-04-01T02:08:14;6.30;99.90
13686;DHT22;6915;48.296;8.874;2023-04-01T02:10:48;6.30;99.90
13686;DHT22;6915;48.296;8.874;2023-04-01T02:13:21;6.30;99.90
13686;DHT22;6915;48.296;8.874;2023-04-01T02:15:52;6.30;99.90
13686;DHT22;6915;48.296;8.874;2023-04-01T02:18:24;6.30;99.90
13686;DHT22;6915;48.296;8.874;2023-04-01T02:20:54;6.30;99.90
13686;DHT22;6915;48.296;8.874;2023-04-01T02:23:24;6.20;99.90
13686;DHT22;6915;48.296;8.874;2023-04-01T02:25:54;6.30;99.90
13686;DHT22;6915;48.296;8.874;2023-04-01T02:28:24;6.20;99.90
13686;DHT22;6915;48.296;8.874;2023-04-01T02:30:53;6.20;99.90
13686;DHT22;6915;48.296;8.874;2023-04-01T02:33:23;6.20;99.90
13686;DHT22;6915;48.296;8.874;2023-04-01T02:35:53;6.20;99.90
13686;DHT22;6915;48.296;8.874;2023-04-01T02:38:22;6.10;99.90
13686;DHT22;6915;48.296;8.874;2023-04-01T02:40:57;6.20;99.90
13686;DHT22;6915;48.296;8.874;2023-04-01T02:43:26;6.10;99.90
13686;DHT22;6915;48.296;8.874;2023-04-01T02:45:54;6.10;99.90
13686;DHT22;6915;48.296;8.874;2023-04-01T02:48:23;6.10;99.90
13686;DHT22;6915;48.296;8.874;2023-04-01T02:50:51;6.10;99.90
13686;DHT22;6915;48.296;8.874;2023-04-01T02:53:20;6.10;99.90
13686;DHT22;6915;48.296;8.874;2023-04-01T02:55:49;6.10;99.90
13686;DHT22;6915;48.296;8.874;2023-04-01T02:58:19;6.00;99.90
13686;DHT22;6915;48.296;8.874;2023-04-01T03:00:47;6.00;99.90
13686;DHT22;6915;48.296;8.874;2023-04-01T03:03:16;6.10;99.90
13686;DHT22;6915;48.296;8.874;2023-04-01T03:05:45;6.00;99.90
13686;DHT22;6915;48.296;8.874;2023-04-01T03:08:15;6.00;99.90
13686;DHT22;6915;48.296;8.874;2023-04-01T03:10:44;5.90;99.90
13686;DHT22;6915;48.296;8.874;2023-04-01T03:13:12;6.00;99.90
13686;DHT22;6915;48.296;8.874;2023-04-01T03:15:41;5.70;99.90
13686;DHT22;6915;48.296;8.874;2023-04-01T03:18:10;5.80;99.90
13686;DHT22;6915;48.296;8.874;2023-04-01T03:20:38;5.80;99.90
13686;DHT22;6915;48.296;8.874;2023-04-01T03:23:07;5.80;99.90
13686;DHT22;6915;48.296;8.874;2023-04-01T03:25:37;5.90;99.90
13686;DHT22;6915;48.296;8.874;2023-04-01T03:28:06;5.90;99.90
13686;DHT22;6915;48.296;8.874;2023-04-01T03:30:35;5.90;99.90
13686;DHT22;6915;48.296;8.874;2023-04-01T03:33:05;5.80;99.90
13686;DHT22;6915;48.296;8.874;2023-04-01T03:35:34;5.80;99.90
13686;DHT22;6915;48.296;8.874;2023-04-01T03:38:03;5.80;99.90
13686;DHT22;6915;48.296;8.874;2023-04-01T03:40:32;5.70;99.90
13686;DHT22;6915;48.296;8.874;2023-04-01T03:43:06;5.80;99.90
13686;DHT22;6915;48.296;8.874;2023-04-01T03:45:40;5.80;99.90
13686;DHT22;6915;48.296;8.874;2023-04-01T03:48:11;5.80;99.90
13686;DHT22;6915;48.296;8.874;2023-04-01T03:50:40;5.80;99.90
13686;DHT22;6915;48.296;8.874;2023-04-01T03:53:09;5.80;99.90
13686;DHT22;6915;48.296;8.874;2023-04-01T03:55:38;5.70;99.90
13686;DHT22;6915;48.296;8.874;2023-04-01T03:58:09;5.80;99.90
13686;DHT22;6915;48.296;8.874;2023-04-01T04:00:37;5.80;99.90
13686;DHT22;6915;48.296;8.874;2023-04-01T04:03:07;5.80;99.90
13686;DHT22;6915;48.296;8.874;2023-04-01T04:05:36;5.90;99.90
13686;DHT22;6915;48.296;8.874;2023-04-01T04:08:05;5.90;99.90
13686;DHT22;6915;48.296;8.874;2023-04-01T04:10:34;5.90;99.90
13686;DHT22;6915;48.296;8.874;2023-04-01T04:13:02;5.80;99.90
13686;DHT22;6915;48.296;8.874;2023-04-01T04:15:33;5.80;99.90
13686;DHT22;6915;48.296;8.874;2023-04-01T04:18:01;5.90;99.90
13686;DHT22;6915;48.296;8.874;2023-04-01T04:20:30;5.80;99.90
13686;DHT22;6915;48.296;8.874;2023-04-01T04:22:58;5.80;99.90
13686;DHT22;6915;48.296;8.874;2023-04-01T04:25:28;5.80;99.90
13686;DHT22;6915;48.296;8.874;2023-04-01T04:27:57;5.90;99.90
13686;DHT22;6915;48.296;8.874;2023-04-01T04:30:25;5.80;99.90
13686;DHT22;6915;48.296;8.874;2023-04-01T04:32:55;5.80;99.90
13686;DHT22;6915;48.296;8.874;2023-04-01T04:35:24;5.80;99.90
13686;DHT22;6915;48.296;8.874;2023-04-01T04:37:53;5.80;99.90
13686;DHT22;6915;48.296;8.874;2023-04-01T04:40:21;5.70;99.90
13686;DHT22;6915;48.296;8.874;2023-04-01T04:42:50;5.80;99.90
13686;DHT22;6915;48.296;8.874;2023-04-01T04:45:18;5.70;99.90
13686;DHT22;6915;48.296;8.874;2023-04-01T04:47:47;5.70;99.90
13686;DHT22;6915;48.296;8.874;2023-04-01T04:50:17;5.70;99.90
13686;DHT22;6915;48.296;8.874;2023-04-01T04:52:46;5.70;99.90
13686;DHT22;6915;48.296;8.874;2023-04-01T04:55:15;5.70;99.90
13686;DHT22;6915;48.296;8.874;2023-04-01T04:57:43;5.70;99.90
13686;DHT22;6915;48.296;8.874;2023-04-01T05:00:13;5.70;99.90
13686;DHT22;6915;48.296;8.874;2023-04-01T05:02:42;5.70;99.90
13686;DHT22;6915;48.296;8.874;2023-04-01T05:05:11;5.70;99.90
13686;DHT22;6915;48.296;8.874;2023-04-01T05:07:41;5.70;99.90
13686;DHT22;6915;48.296;8.874;2023-04-01T05:10:11;5.70;99.90
13686;DHT22;6915;48.296;8.874;2023-04-01T05:12:40;5.80;99.90
13686;DHT22;6915;48.296;8.874;2023-04-01T05:15:09;5.80;99.90
13686;DHT22;6915;48.296;8.874;2023-04-01T05:17:38;5.80;99.90
13686;DHT22;6915;48.296;8.874;2023-04-01T05:20:08;5.90;99.90
13686;DHT22;6915;48.296;8.874;2023-04-01T05:22:37;5.90;99.90
13686;DHT22;6915;48.296;8.874;2023-04-01T05:25:09;5.80;99.90
13686;DHT22;6915;48.296;8.874;2023-04-01T05:27:38;5.90;99.90
13686;DHT22;6915;48.296;8.874;2023-04-01T05:30:08;6.00;99.90
13686;DHT22;6915;48.296;8.874;2023-04-01T05:32:37;6.00;99.90
13686;DHT22;6915;48.296;8.874;2023-04-01T05:35:07;6.10;99.90
13686;DHT22;6915;48.296;8.874;2023-04-01T05:37:38;6.10;99.90
13686;DHT22;6915;48.296;8.874;2023-04-01T05:40:09;6.00;99.90
13686;DHT22;6915;48.296;8.874;2023-04-01T05:42:38;6.20;99.90
13686;DHT22;6915;48.296;8.874;2023-04-01T05:45:06;6.30;99.90
13686;DHT22;6915;48.296;8.874;2023-04-01T05:47:35;6.30;99.90
13686;DHT22;6915;48.296;8.874;2023-04-01T05:50:04;6.50;99.90
13686;DHT22;6915;48.296;8.874;2023-04-01T05:52:33;6.80;99.90
13686;DHT22;6915;48.296;8.874;2023-04-01T05:55:02;7.00;99.90
13686;DHT22;6915;48.296;8.874;2023-04-01T05:57:32;7.10;99.90
13686;DHT22;6915;48.296;8.874;2023-04-01T06:00:01;7.10;99.90
13686;DHT22;6915;48.296;8.874;2023-04-01T06:02:31;7.10;99.90
13686;DHT22;6915;48.296;8.874;2023-04-01T06:05:10;7.00;99.90
13686;DHT22;6915;48.296;8.874;2023-04-01T06:07:41;7.00;99.90
13686;DHT22;6915;48.296;8.874;2023-04-01T06:10:17;6.90;99.90
13686;DHT22;6915;48.296;8.874;2023-04-01T06:13:02;6.90;99.90
13686;DHT22;6915;48.296;8.874;2023-04-01T06:15:38;6.80;99.90
13686;DHT22;6915;48.296;8.874;2023-04-01T06:18:49;7.00;99.90
13686;DHT22;6915;48.296;8.874;2023-04-01T06:21:36;7.00;99.90
13686;DHT22;6915;48.296;8.874;2023-04-01T06:24:16;6.90;99.90
13686;DHT22;6915;48.296;8.874;2023-04-01T06:26:55;6.90;99.90
13686;DHT22;6915;48.296;8.874;2023-04-01T06:29:39;6.90;99.90
13686;DHT22;6915;48.296;8.874;2023-04-01T06:32:23;6.90;99.90
13686;DHT22;6915;48.296;8.874;2023-04-01T06:35:07;6.90;99.90
13686;DHT22;6915;48.296;8.874;2023-04-01T06:37:53;6.90;99.90
13686;DHT22;6915;48.296;8.874;2023-04-01T06:40:48;7.00;99.90
13686;DHT22;6915;48.296;8.874;2023-04-01T06:43:22;7.00;99.90
13686;DHT22;6915;48.296;8.874;2023-04-01T06:45:58;7.10;99.90
13686;DHT22;6915;48.296;8.874;2023-04-01T06:48:38;7.10;99.90
13686;DHT22;6915;48.296;8.874;2023-04-01T06:51:16;7.10;99.90
13686;DHT22;6915;48.296;8.874;2023-04-01T06:53:52;7.20;99.90
13686;DHT22;6915;48.296;8.874;2023-04-01T06:56:24;7.20;99.90
13686;DHT22;6915;48.296;8.874;2023-04-01T06:58:56;7.10;99.90
13686;DHT22;6915;48.296;8.874;2023-04-01T07:01:29;7.20;99.90
13686;DHT22;6915;48.296;8.874;2023-04-01T07:04:04;7.10;99.90
13686;DHT22;6915;48.296;8.874;2023-04-01T07:06:38;7.10;99.90
13686;DHT22;6915;48.296;8.874;2023-04-01T07:09:11;7.20;99.90
13686;DHT22;6915;48.296;8.874;2023-04-01T07:11:42;7.20;99.90
13686;DHT22;6915;48.296;8.874;2023-04-01T07:14:16;7.30;99.90
13686;DHT22;6915;48.296;8.874;2023-04-01T07:16:51;7.30;99.90
13686;DHT22;6915;48.296;8.874;2023-04-01T07:19:24;7.30;99.90
13686;DHT22;6915;48.296;8.874;2023-04-01T07:22:00;7.30;99.90
13686;DHT22;6915;48.296;8.874;2023-04-01T07:24:36;7.50;99.90
13686;DHT22;6915;48.296;8.874;2023-04-01T07:27:08;7.40;99.90
13686;DHT22;6915;48.296;8.874;2023-04-01T07:29:37;7.40;99.90
13686;DHT22;6915;48.296;8.874;2023-04-01T07:32:16;7.50;99.90
13686;DHT22;6915;48.296;8.874;2023-04-01T07:34:56;7.40;99.90
13686;DHT22;6915;48.296;8.874;2023-04-01T07:37:32;7.50;99.90
13686;DHT22;6915;48.296;8.874;2023-04-01T07:40:10;7.70;99.90
13686;DHT22;6915;48.296;8.874;2023-04-01T07:42:55;7.60;99.90
13686;DHT22;6915;48.296;8.874;2023-04-01T07:45:30;7.50;99.90
13686;DHT22;6915;48.296;8.874;2023-04-01T07:48:19;7.60;99.90
13686;DHT22;6915;48.296;8.874;2023-04-01T07:50:54;7.60;99.90
13686;DHT22;6915;48.296;8.874;2023-04-01T07:53:28;7.60;99.90
13686;DHT22;6915;48.296;8.874;2023-04-01T07:56:05;7.70;99.90
13686;DHT22;6915;48.296;8.874;2023-04-01T07:58:39;7.70;99.90
13686;DHT22;6915;48.296;8.874;2023-04-01T08:01:16;7.70;99.90
13686;DHT22;6915;48.296;8.874;2023-04-01T08:04:06;7.70;99.90
13686;DHT22;6915;48.296;8.874;2023-04-01T08:06:39;7.70;99.90
13686;DHT22;6915;48.296;8.874;2023-04-01T08:09:15;7.70;99.90
13686;DHT22;6915;48.296;8.874;2023-04-01T08:11:58;7.70;99.90
13686;DHT22;6915;48.296;8.874;2023-04-01T08:14:33;7.80;99.90
13686;DHT22;6915;48.296;8.874;2023-04-01T08:17:09;7.70;99.90
13686;DHT22;6915;48.296;8.874;2023-04-01T08:19:55;7.80;99.90
13686;DHT22;6915;48.296;8.874;2023-04-01T08:22:29;7.80;99.90
13686;DHT22;6915;48.296;8.874;2023-04-01T08:25:02;7.80;99.90
13686;DHT22;6915;48.296;8.874;2023-04-01T08:27:37;7.80;99.90
13686;DHT22;6915;48.296;8.874;2023-04-01T08:30:16;7.70;99.90
13686;DHT22;6915;48.296;8.874;2023-04-01T08:32:48;7.70;99.90
13686;DHT22;6915;48.296;8.874;2023-04-01T08:35:24;7.80;99.90
13686;DHT22;6915;48.296;8.874;2023-04-01T08:37:56;7.80;99.90
13686;DHT22;6915;48.296;8.874;2023-04-01T08:40:48;7.80;99.90
13686;DHT22;6915;48.296;8.874;2023-04-01T08:43:25;7.80;99.90
13686;DHT22;6915;48.296;8.874;2023-04-01T08:46:12;7.80;99.90
13686;DHT22;6915;48.296;8.874;2023-04-01T08:49:07;7.80;99.90
13686;DHT22;6915;48.296;8.874;2023-04-01T08:52:01;7.90;99.90
13686;DHT22;6915;48.296;8.874;2023-04-01T08:54:46;7.70;99.90
13686;DHT22;6915;48.296;8.874;2023-04-01T08:57:24;7.80;99.90
13686;DHT22;6915;48.296;8.874;2023-04-01T09:00:10;7.80;99.90
13686;DHT22;6915;48.296;8.874;2023-04-01T09:03:22;7.80;99.90
13686;DHT22;6915;48.296;8.874;2023-04-01T09:06:21;7.90;99.90
13686;DHT22;6915;48.296;8.874;2023-04-01T09:09:32;7.90;99.90
13686;DHT22;6915;48.296;8.874;2023-04-01T09:12:28;8.00;99.90
13686;DHT22;6915;48.296;8.874;2023-04-01T09:15:20;8.00;99.90
13686;DHT22;6915;48.296;8.874;2023-04-01T09:18:15;8.10;99.90
13686;DHT22;6915;48.296;8.874;2023-04-01T09:23:47;8.10;99.90
13686;DHT22;6915;48.296;8.874;2023-04-01T09:29:24;8.00;99.90
13686;DHT22;6915;48.296;8.874;2023-04-01T09:32:10;8.20;99.90
13686;DHT22;6915;48.296;8.874;2023-04-01T09:34:55;8.00;99.90
13686;DHT22;6915;48.296;8.874;2023-04-01T09:37:37;8.10;99.90
13686;DHT22;6915;48.296;8.874;2023-04-01T09:40:16;8.10;99.90
13686;DHT22;6915;48.296;8.874;2023-04-01T09:42:56;8.10;99.90
13686;DHT22;6915;48.296;8.874;2023-04-01T09:45:37;8.10;99.90
13686;DHT22;6915;48.296;8.874;2023-04-01T09:48:30;8.10;99.90
13686;DHT22;6915;48.296;8.874;2023-04-01T09:51:17;8.00;99.90
13686;DHT22;6915;48.296;8.874;2023-04-01T09:53:59;8.00;99.90
13686;DHT22;6915;48.296;8.874;2023-04-01T10:00:09;8.10;99.90
13686;DHT22;6915;48.296;8.874;2023-04-01T10:09:12;8.20;99.90
13686;DHT22;6915;48.296;8.874;2023-04-01T10:12:09;8.20;99.90
13686;DHT22;6915;48.296;8.874;2023-04-01T10:15:10;8.20;99.90
13686;DHT22;6915;48.296;8.874;2023-04-01T10:17:59;8.10;99.90
13686;DHT22;6915;48.296;8.874;2023-04-01T10:21:07;8.00;99.90
13686;DHT22;6915;48.296;8.874;2023-04-01T10:23:51;8.00;99.90
13686;DHT22;6915;48.296;8.874;2023-04-01T10:26:41;8.00;99.90
13686;DHT22;6915;48.296;8.874;2023-04-01T10:29:31;8.00;99.90
13686;DHT22;6915;48.296;8.874;2023-04-01T10:32:34;8.10;99.90
13686;DHT22;6915;48.296;8.874;2023-04-01T10:35:28;8.10;99.90
13686;DHT22;6915;48.296;8.874;2023-04-01T10:38:25;8.20;99.90
13686;DHT22;6915;48.296;8.874;2023-04-01T10:41:10;8.20;99.90
13686;DHT22;6915;48.296;8.874;2023-04-01T10:47:01;8.30;99.90
13686;DHT22;6915;48.296;8.874;2023-04-01T10:49:48;8.30;99.90
13686;DHT22;6915;48.296;8.874;2023-04-01T10:52:46;8.30;99.90
13686;DHT22;6915;48.296;8.874;2023-04-01T10:55:50;8.30;99.90
13686;DHT22;6915;48.296;8.874;2023-04-01T10:58:54;8.40;99.90
13686;DHT22;6915;48.296;8.874;2023-04-01T11:20:52;8.30;99.90
13686;DHT22;6915;48.296;8.874;2023-04-01T11:23:35;8.20;99.90
13686;DHT22;6915;48.296;8.874;2023-04-01T11:26:11;8.20;99.90
13686;DHT22;6915;48.296;8.874;2023-04-01T11:28:58;8.30;99.90
13686;DHT22;6915;48.296;8.874;2023-04-01T11:31:37;8.30;99.90
13686;DHT22;6915;48.296;8.874;2023-04-01T11:34:17;8.40;99.90
13686;DHT22;6915;48.296;8.874;2023-04-01T11:36:58;8.40;99.90
13686;DHT22;6915;48.296;8.874;2023-04-01T11:39:33;8.50;99.90
13686;DHT22;6915;48.296;8.874;2023-04-01T11:42:13;8.50;99.90
13686;DHT22;6915;48.296;8.874;2023-04-01T11:44:48;8.40;99.90
13686;DHT22;6915;48.296;8.874;2023-04-01T11:47:35;8.60;99.90
13686;DHT22;6915;48.296;8.874;2023-04-01T11:50:16;8.70;99.90
13686;DHT22;6915;48.296;8.874;2023-04-01T11:53:21;8.90;99.90
13686;DHT22;6915;48.296;8.874;2023-04-01T11:55:59;9.10;99.90
13686;DHT22;6915;48.296;8.874;2023-04-01T11:58:52;9.20;99.90
13686;DHT22;6915;48.296;8.874;2023-04-01T12:01:34;9.30;99.90
13686;DHT22;6915;48.296;8.874;2023-04-01T12:07:19;9.10;99.90
13686;DHT22;6915;48.296;8.874;2023-04-01T12:09:55;9.10;99.90
13686;DHT22;6915;48.296;8.874;2023-04-01T12:12:29;9.20;99.90
13686;DHT22;6915;48.296;8.874;2023-04-01T12:15:17;9.00;99.90
13686;DHT22;6915;48.296;8.874;2023-04-01T12:17:53;8.90;99.90
13686;DHT22;6915;48.296;8.874;2023-04-01T12:20:32;9.00;99.90
13686;DHT22;6915;48.296;8.874;2023-04-01T12:26:19;8.90;99.90
13686;DHT22;6915;48.296;8.874;2023-04-01T12:29:04;9.00;99.90
13686;DHT22;6915;48.296;8.874;2023-04-01T12:31:41;8.90;99.90
13686;DHT22;6915;48.296;8.874;2023-04-01T12:37:33;9.00;99.90
13686;DHT22;6915;48.296;8.874;2023-04-01T12:40:20;8.90;99.90
13686;DHT22;6915;48.296;8.874;2023-04-01T12:43:12;9.00;99.90
13686;DHT22;6915;48.296;8.874;2023-04-01T12:45:52;9.00;99.90
13686;DHT22;6915;48.296;8.874;2023-04-01T12:52:01;9.20;99.90
13686;DHT22;6915;48.296;8.874;2023-04-01T12:55:07;9.40;99.90
13686;DHT22;6915;48.296;8.874;2023-04-01T13:00:45;9.70;99.90
13686;DHT22;6915;48.296;8.874;2023-04-01T13:03:33;9.80;99.90
13686;DHT22;6915;48.296;8.874;2023-04-01T13:09:29;10.00;99.90
13686;DHT22;6915;48.296;8.874;2023-04-01T13:12:19;10.10;99.90
13686;DHT22;6915;48.296;8.874;2023-04-01T13:15:01;10.00;99.90
13686;DHT22;6915;48.296;8.874;2023-04-01T13:17:38;10.10;99.90
13686;DHT22;6915;48.296;8.874;2023-04-01T13:20:16;10.10;99.90
13686;DHT22;6915;48.296;8.874;2023-04-01T13:23:01;10.30;99.90
13686;DHT22;6915;48.296;8.874;2023-04-01T13:25:39;10.70;99.90
13686;DHT22;6915;48.296;8.874;2023-04-01T13:28:13;10.70;99.90
13686;DHT22;6915;48.296;8.874;2023-04-01T13:30:49;10.90;99.90
13686;DHT22;6915;48.296;8.874;2023-04-01T13:33:29;10.90;99.90
13686;DHT22;6915;48.296;8.874;2023-04-01T13:36:13;10.80;99.90
13686;DHT22;6915;48.296;8.874;2023-04-01T13:39:15;10.60;99.90
13686;DHT22;6915;48.296;8.874;2023-04-01T13:42:12;10.50;99.90
13686;DHT22;6915;48.296;8.874;2023-04-01T13:44:48;10.10;99.90
13686;DHT22;6915;48.296;8.874;2023-04-01T13:50:41;9.90;99.90
13686;DHT22;6915;48.296;8.874;2023-04-01T13:56:41;9.90;99.90
13686;DHT22;6915;48.296;8.874;2023-04-01T13:59:35;9.90;99.90
13686;DHT22;6915;48.296;8.874;2023-04-01T14:02:21;10.00;99.90
13686;DHT22;6915;48.296;8.874;2023-04-01T14:05:09;10.00;99.90
13686;DHT22;6915;48.296;8.874;2023-04-01T14:07:56;10.10;99.90
13686;DHT22;6915;48.296;8.874;2023-04-01T14:10:31;10.10;99.90
13686;DHT22;6915;48.296;8.874;2023-04-01T14:13:09;10.10;99.90
13686;DHT22;6915;48.296;8.874;2023-04-01T14:15:50;10.20;99.90
13686;DHT22;6915;48.296;8.874;2023-04-01T14:18:41;10.20;99.90
13686;DHT22;6915;48.296;8.874;2023-04-01T14:21:20;10.00;99.90
13686;DHT22;6915;48.296;8.874;2023-04-01T14:24:13;10.20;99.90
13686;DHT22;6915;48.296;8.874;2023-04-01T14:29:59;10.00;99.90
13686;DHT22;6915;48.296;8.874;2023-04-01T14:32:38;10.00;99.90
13686;DHT22;6915;48.296;8.874;2023-04-01T14:35:26;9.90;99.90
13686;DHT22;6915;48.296;8.874;2023-04-01T14:41:00;10.10;99.90
13686;DHT22;6915;48.296;8.874;2023-04-01T14:43:54;10.10;99.90
13686;DHT22;6915;48.296;8.874;2023-04-01T14:46:52;10.10;99.90
13686;DHT22;6915;48.296;8.874;2023-04-01T14:49:35;10.20;99.90
13686;DHT22;6915;48.296;8.874;2023-04-01T14:52:10;10.20;99.90
13686;DHT22;6915;48.296;8.874;2023-04-01T14:54:42;10.30;99.90
13686;DHT22;6915;48.296;8.874;2023-04-01T14:57:13;10.20;99.90
13686;DHT22;6915;48.296;8.874;2023-04-01T14:59:51;10.10;99.90
13686;DHT22;6915;48.296;8.874;2023-04-01T15:02:36;10.10;99.90
13686;DHT22;6915;48.296;8.874;2023-04-01T15:05:14;10.10;99.90
13686;DHT22;6915;48.296;8.874;2023-04-01T15:08:00;9.90;99.90
13686;DHT22;6915;48.296;8.874;2023-04-01T15:10:49;10.10;99.90
13686;DHT22;6915;48.296;8.874;2023-04-01T15:13:31;10.20;99.90
13686;DHT22;6915;48.296;8.874;2023-04-01T15:16:10;10.10;99.90
13686;DHT22;6915;48.296;8.874;2023-04-01T15:18:48;10.10;99.90
13686;DHT22;6915;48.296;8.874;2023-04-01T15:24:26;10.20;99.90
13686;DHT22;6915;48.296;8.874;2023-04-01T15:27:15;10.10;99.90
13686;DHT22;6915;48.296;8.874;2023-04-01T15:30:05;10.00;99.90
13686;DHT22;6915;48.296;8.874;2023-04-01T15:32:46;10.00;99.90
13686;DHT22;6915;48.296;8.874;2023-04-01T15:35:26;9.90;99.90
13686;DHT22;6915;48.296;8.874;2023-04-01T15:38:04;10.00;99.90
13686;DHT22;6915;48.296;8.874;2023-04-01T15:40:41;10.00;99.90
13686;DHT22;6915;48.296;8.874;2023-04-01T15:43:20;10.00;99.90
13686;DHT22;6915;48.296;8.874;2023-04-01T15:45:58;9.90;99.90
13686;DHT22;6915;48.296;8.874;2023-04-01T15:48:49;9.90;99.90
13686;DHT22;6915;48.296;8.874;2023-04-01T15:51:41;9.90;99.90
13686;DHT22;6915;48.296;8.874;2023-04-01T15:57:35;9.80;99.90
13686;DHT22;6915;48.296;8.874;2023-04-01T16:00:25;9.80;99.90
13686;DHT22;6915;48.296;8.874;2023-04-01T16:06:10;9.70;99.90
13686;DHT22;6915;48.296;8.874;2023-04-01T16:08:54;9.70;99.90
13686;DHT22;6915;48.296;8.874;2023-04-01T16:11:28;9.70;99.90
13686;DHT22;6915;48.296;8.874;2023-04-01T16:14:09;9.70;99.90
13686;DHT22;6915;48.296;8.874;2023-04-01T16:16:51;9.70;99.90
13686;DHT22;6915;48.296;8.874;2023-04-01T16:19:33;9.70;99.90
13686;DHT22;6915;48.296;8.874;2023-04-01T16:22:09;9.70;99.90
13686;DHT22;6915;48.296;8.874;2023-04-01T16:24:45;9.70;99.90
13686;DHT22;6915;48.296;8.874;2023-04-01T16:27:23;9.60;99.90
13686;DHT22;6915;48.296;8.874;2023-04-01T16:29:55;9.70;99.90
13686;DHT22;6915;48.296;8.874;2023-04-01T16:32:41;9.70;99.90
13686;DHT22;6915;48.296;8.874;2023-04-01T16:35:25;9.70;99.90
13686;DHT22;6915;48.296;8.874;2023-04-01T16:38:03;9.70;99.90
13686;DHT22;6915;48.296;8.874;2023-04-01T16:40:46;9.60;99.90
13686;DHT22;6915;48.296;8.874;2023-04-01T16:53:43;9.50;99.90
13686;DHT22;6915;48.296;8.874;2023-04-01T16:56:20;9.50;99.90
13686;DHT22;6915;48.296;8.874;2023-04-01T16:59:01;9.50;99.90
13686;DHT22;6915;48.296;8.874;2023-04-01T17:01:36;9.40;99.90
13686;DHT22;6915;48.296;8.874;2023-04-01T17:04:13;9.40;99.90
13686;DHT22;6915;48.296;8.874;2023-04-01T17:22:25;9.10;99.90
13686;DHT22;6915;48.296;8.874;2023-04-01T17:25:10;9.00;99.90
13686;DHT22;6915;48.296;8.874;2023-04-01T17:27:47;9.00;99.90
13686;DHT22;6915;48.296;8.874;2023-04-01T17:30:35;9.00;99.90
13686;DHT22;6915;48.296;8.874;2023-04-01T17:35:56;9.00;99.90
13686;DHT22;6915;48.296;8.874;2023-04-01T17:38:39;8.90;99.90
13686;DHT22;6915;48.296;8.874;2023-04-01T17:41:13;8.90;99.90
13686;DHT22;6915;48.296;8.874;2023-04-01T17:49:05;8.70;99.90
13686;DHT22;6915;48.296;8.874;2023-04-01T17:51:43;8.60;99.90
13686;DHT22;6915;48.296;8.874;2023-04-01T17:54:24;8.60;99.90
13686;DHT22;6915;48.296;8.874;2023-04-01T17:57:07;8.60;99.90
13686;DHT22;6915;48.296;8.874;2023-04-01T18:02:21;8.50;99.90
13686;DHT22;6915;48.296;8.874;2023-04-01T18:05:12;8.50;99.90
13686;DHT22;6915;48.296;8.874;2023-04-01T18:07:56;8.40;99.90
13686;DHT22;6915;48.296;8.874;2023-04-01T18:10:32;8.40;99.90
13686;DHT22;6915;48.296;8.874;2023-04-01T18:13:26;8.30;99.90
13686;DHT22;6915;48.296;8.874;2023-04-01T19:43:59;6.90;99.90
13686;DHT22;6915;48.296;8.874;2023-04-01T19:46:36;6.90;99.90
13686;DHT22;6915;48.296;8.874;2023-04-01T19:51:59;6.90;99.90
13686;DHT22;6915;48.296;8.874;2023-04-01T19:54:38;6.90;99.90
13686;DHT22;6915;48.296;8.874;2023-04-01T19:59:49;6.80;99.90
13686;DHT22;6915;48.296;8.874;2023-04-01T20:02:39;6.80;99.90
13686;DHT22;6915;48.296;8.874;2023-04-01T20:05:33;6.80;99.90
13686;DHT22;6915;48.296;8.874;2023-04-01T20:08:07;6.80;99.90
13686;DHT22;6915;48.296;8.874;2023-04-01T20:10:45;6.90;99.90
13686;DHT22;6915;48.296;8.874;2023-04-01T20:13:23;6.80;99.90
13686;DHT22;6915;48.296;8.874;2023-04-01T20:15:59;6.90;99.90
13686;DHT22;6915;48.296;8.874;2023-04-01T20:18:36;6.90;99.90
13686;DHT22;6915;48.296;8.874;2023-04-01T20:21:16;6.90;99.90
13686;DHT22;6915;48.296;8.874;2023-04-01T20:23:49;7.00;99.90
13686;DHT22;6915;48.296;8.874;2023-04-01T20:26:22;7.10;99.90
13686;DHT22;6915;48.296;8.874;2023-04-01T20:29:24;6.90;99.90
13686;DHT22;6915;48.296;8.874;2023-04-01T20:32:03;7.00;99.90
13686;DHT22;6915;48.296;8.874;2023-04-01T20:34:40;6.90;99.90
13686;DHT22;6915;48.296;8.874;2023-04-01T20:37:21;7.00;99.90
13686;DHT22;6915;48.296;8.874;2023-04-01T20:43:07;6.90;99.90
13686;DHT22;6915;48.296;8.874;2023-04-01T20:45:45;7.10;99.90
13686;DHT22;6915;48.296;8.874;2023-04-01T20:48:47;7.00;99.90